sensor_id;sensor_type;location;lat;lon;timestamp;temperature;humidity
10231;DHT22;5159;49.432;8.680;2022-07-22T00:01:50;20.70;99.90
10231;DHT22;5159;49.432;8.680;2022-07-22T00:04:17;20.70;99.90
10231;DHT22;5159;49.432;8.680;2022-07-22T00:06:44;20.70;99.90
10231;DHT22;5159;49.432;8.680;2022-07-22T00:09:10;20.70;99.90
10231;DHT22;5159;49.432;8.680;2022-07-22T00:11:37;20.70;99.90
10231;DHT22;5159;49.432;8.680;2022-07-22T00:14:04;20.70;99.90
10231;DHT22;5159;49.432;8.680;2022-07-22T00:16:33;20.70;99.90
10231;DHT22;5159;49.432;8.680;2022-07-22T00:19:00;20.60;99.90
10231;DHT22;5159;49.432;8.680;2022-07-22T00:21:27;20.70;99.90
10231;DHT22;5159;49.432;8.680;2022-07-22T00:23:54;20.70;99.90
10231;DHT22;5159;49.432;8.680;2022-07-22T00:26:21;20.50;99.90
10231;DHT22;5159;49.432;8.680;2022-07-22T00:28:48;20.50;99.90
10231;DHT22;5159;49.432;8.680;2022-07-22T00:31:15;20.50;99.90
10231;DHT22;5159;49.432;8.680;2022-07-22T00:33:43;20.40;99.90
10231;DHT22;5159;49.432;8.680;2022-07-22T00:36:10;20.30;99.90
10231;DHT22;5159;49.432;8.680;2022-07-22T00:38:37;20.30;99.90
10231;DHT22;5159;49.432;8.680;2022-07-22T00:41:05;20.20;99.90
10231;DHT22;5159;49.432;8.680;2022-07-22T00:43:50;20.20;99.90
10231;DHT22;5159;49.432;8.680;2022-07-22T00:46:17;20.10;99.90
10231;DHT22;5159;49.432;8.680;2022-07-22T00:48:46;20.10;99.90
10231;DHT22;5159;49.432;8.680;2022-07-22T00:51:13;20.00;99.90
10231;DHT22;5159;49.432;8.680;2022-07-22T00:53:40;20.00;99.90
10231;DHT22;5159;49.432;8.680;2022-07-22T00:56:07;19.90;99.90
10231;DHT22;5159;49.432;8.680;2022-07-22T00:58:35;20.00;99.90
10231;DHT22;5159;49.432;8.680;2022-07-22T01:01:02;20.00;99.90
10231;DHT22;5159;49.432;8.680;2022-07-22T01:03:30;19.90;99.90
10231;DHT22;5159;49.432;8.680;2022-07-22T01:05:58;19.90;99.90
10231;DHT22;5159;49.432;8.680;2022-07-22T01:08:26;19.80;99.90
10231;DHT22;5159;49.432;8.680;2022-07-22T01:10:53;19.80;99.90
10231;DHT22;5159;49.432;8.680;2022-07-22T01:13:20;19.80;99.90
10231;DHT22;5159;49.432;8.680;2022-07-22T01:15:47;19.70;99.90
10231;DHT22;5159;49.432;8.680;2022-07-22T01:18:14;19.80;99.90
10231;DHT22;5159;49.432;8.680;2022-07-22T01:20:42;19.80;99.90
10231;DHT22;5159;49.432;8.680;2022-07-22T01:23:09;19.70;99.90
10231;DHT22;5159;49.432;8.680;2022-07-22T01:25:36;19.70;99.90
10231;DHT22;5159;49.432;8.680;2022-07-22T01:28:03;19.60;99.90
10231;DHT22;5159;49.432;8.680;2022-07-22T01:30:30;19.50;99.90
10231;DHT22;5159;49.432;8.680;2022-07-22T01:32:57;19.40;99.90
10231;DHT22;5159;49.432;8.680;2022-07-22T01:35:24;19.50;99.90
10231;DHT22;5159;49.432;8.680;2022-07-22T01:37:53;19.40;99.90
10231;DHT22;5159;49.432;8.680;2022-07-22T01:40:19;19.40;99.90
10231;DHT22;5159;49.432;8.680;2022-07-22T01:42:46;19.40;99.90
10231;DHT22;5159;49.432;8.680;2022-07-22T01:45:14;19.40;99.90
10231;DHT22;5159;49.432;8.680;2022-07-22T01:47:41;19.30;99.90
10231;DHT22;5159;49.432;8.680;2022-07-22T01:50:10;19.30;99.90
10231;DHT22;5159;49.432;8.680;2022-07-22T01:52:38;19.20;99.90
10231;DHT22;5159;49.432;8.680;2022-07-22T01:55:08;19.20;99.90
10231;DHT22;5159;49.432;8.680;2022-07-22T01:57:36;19.00;99.90
10231;DHT22;5159;49.432;8.680;2022-07-22T02:00:04;19.00;99.90
10231;DHT22;5159;49.432;8.680;2022-07-22T02:02:32;19.00;99.90
10231;DHT22;5159;49.432;8.680;2022-07-22T02:04:59;18.90;99.90
10231;DHT22;5159;49.432;8.680;2022-07-22T02:07:26;18.90;99.90
10231;DHT22;5159;49.432;8.680;2022-07-22T02:09:53;18.90;99.90
10231;DHT22;5159;49.432;8.680;2022-07-22T02:12:22;18.90;99.90
10231;DHT22;5159;49.432;8.680;2022-07-22T02:14:48;18.90;99.90
10231;DHT22;5159;49.432;8.680;2022-07-22T02:17:15;18.90;99.90
10231;DHT22;5159;49.432;8.680;2022-07-22T02:19:43;18.80;99.90
10231;DHT22;5159;49.432;8.680;2022-07-22T02:22:10;18.90;99.90
10231;DHT22;5159;49.432;8.680;2022-07-22T02:24:36;18.80;99.90
10231;DHT22;5159;49.432;8.680;2022-07-22T02:27:04;18.80;99.90
10231;DHT22;5159;49.432;8.680;2022-07-22T02:29:32;18.80;99.90
10231;DHT22;5159;49.432;8.680;2022-07-22T02:31:59;18.70;99.90
10231;DHT22;5159;49.432;8.680;2022-07-22T02:34:26;18.60;99.90
10231;DHT22;5159;49.432;8.680;2022-07-22T02:36:53;18.60;99.90
10231;DHT22;5159;49.432;8.680;2022-07-22T02:39:20;18.60;99.90
10231;DHT22;5159;49.432;8.680;2022-07-22T02:41:47;18.60;99.90
10231;DHT22;5159;49.432;8.680;2022-07-22T02:44:14;18.50;99.90
10231;DHT22;5159;49.432;8.680;2022-07-22T02:46:43;18.50;99.90
10231;DHT22;5159;49.432;8.680;2022-07-22T02:49:10;18.50;99.90
10231;DHT22;5159;49.432;8.680;2022-07-22T02:51:37;18.50;99.90
10231;DHT22;5159;49.432;8.680;2022-07-22T02:54:05;18.50;99.90
10231;DHT22;5159;49.432;8.680;2022-07-22T02:56:32;18.50;99.90
10231;DHT22;5159;49.432;8.680;2022-07-22T02:58:59;18.50;99.90
10231;DHT22;5159;49.432;8.680;2022-07-22T03:01:26;18.50;99.90
10231;DHT22;5159;49.432;8.680;2022-07-22T03:03:54;18.40;99.90
10231;DHT22;5159;49.432;8.680;2022-07-22T03:06:21;18.40;99.90
10231;DHT22;5159;49.432;8.680;2022-07-22T03:08:48;18.40;99.90
10231;DHT22;5159;49.432;8.680;2022-07-22T03:11:15;18.40;99.90
10231;DHT22;5159;49.432;8.680;2022-07-22T03:13:42;18.30;99.90
10231;DHT22;5159;49.432;8.680;2022-07-22T03:16:09;18.30;99.90
10231;DHT22;5159;49.432;8.680;2022-07-22T03:18:36;18.30;99.90
10231;DHT22;5159;49.432;8.680;2022-07-22T03:21:04;18.30;99.90
10231;DHT22;5159;49.432;8.680;2022-07-22T03:23:31;18.30;99.90
10231;DHT22;5159;49.432;8.680;2022-07-22T03:25:58;18.30;99.90
10231;DHT22;5159;49.432;8.680;2022-07-22T03:28:25;18.30;99.90
10231;DHT22;5159;49.432;8.680;2022-07-22T03:30:53;18.30;99.90
10231;DHT22;5159;49.432;8.680;2022-07-22T03:33:20;18.30;99.90
10231;DHT22;5159;49.432;8.680;2022-07-22T03:35:47;18.30;99.90
10231;DHT22;5159;49.432;8.680;2022-07-22T03:38:15;18.30;99.90
10231;DHT22;5159;49.432;8.680;2022-07-22T03:40:42;18.30;99.90
10231;DHT22;5159;49.432;8.680;2022-07-22T03:43:09;18.30;99.90
10231;DHT22;5159;49.432;8.680;2022-07-22T03:45:36;18.30;99.90
10231;DHT22;5159;49.432;8.680;2022-07-22T03:48:03;18.20;99.90
10231;DHT22;5159;49.432;8.680;2022-07-22T03:50:31;18.20;99.90
10231;DHT22;5159;49.432;8.680;2022-07-22T03:52:57;18.10;99.90
10231;DHT22;5159;49.432;8.680;2022-07-22T03:55:26;18.10;99.90
10231;DHT22;5159;49.432;8.680;2022-07-22T03:57:53;18.00;99.90
10231;DHT22;5159;49.432;8.680;2022-07-22T04:00:20;18.00;99.90
10231;DHT22;5159;49.432;8.680;2022-07-22T04:02:47;18.00;99.90
10231;DHT22;5159;49.432;8.680;2022-07-22T04:05:13;18.00;99.90
10231;DHT22;5159;49.432;8.680;2022-07-22T04:07:40;18.00;99.90
10231;DHT22;5159;49.432;8.680;2022-07-22T04:10:08;18.00;99.90
10231;DHT22;5159;49.432;8.680;2022-07-22T04:12:38;18.00;99.90
10231;DHT22;5159;49.432;8.680;2022-07-22T04:15:08;18.00;99.90
10231;DHT22;5159;49.432;8.680;2022-07-22T04:17:35;17.80;99.90
10231;DHT22;5159;49.432;8.680;2022-07-22T04:20:03;17.70;99.90
10231;DHT22;5159;49.432;8.680;2022-07-22T04:22:31;17.60;99.90
10231;DHT22;5159;49.432;8.680;2022-07-22T04:24:58;17.60;99.90
10231;DHT22;5159;49.432;8.680;2022-07-22T04:27:25;17.60;99.90
10231;DHT22;5159;49.432;8.680;2022-07-22T04:29:53;17.70;99.90
10231;DHT22;5159;49.432;8.680;2022-07-22T04:32:20;17.80;99.90
10231;DHT22;5159;49.432;8.680;2022-07-22T04:34:47;17.80;99.90
10231;DHT22;5159;49.432;8.680;2022-07-22T04:37:14;17.90;99.90
10231;DHT22;5159;49.432;8.680;2022-07-22T04:39:41;18.00;99.90
10231;DHT22;5159;49.432;8.680;2022-07-22T04:42:08;18.00;99.90
10231;DHT22;5159;49.432;8.680;2022-07-22T04:44:35;18.10;99.90
10231;DHT22;5159;49.432;8.680;2022-07-22T04:47:03;18.20;99.90
10231;DHT22;5159;49.432;8.680;2022-07-22T04:49:30;18.20;99.90
10231;DHT22;5159;49.432;8.680;2022-07-22T04:52:01;18.10;99.90
10231;DHT22;5159;49.432;8.680;2022-07-22T04:54:38;18.20;99.90
10231;DHT22;5159;49.432;8.680;2022-07-22T04:57:17;18.20;99.90
10231;DHT22;5159;49.432;8.680;2022-07-22T04:59:50;18.20;99.90
10231;DHT22;5159;49.432;8.680;2022-07-22T05:02:18;18.20;99.90
10231;DHT22;5159;49.432;8.680;2022-07-22T05:04:45;18.20;99.90
10231;DHT22;5159;49.432;8.680;2022-07-22T05:07:14;18.20;99.90
10231;DHT22;5159;49.432;8.680;2022-07-22T05:09:42;18.20;99.90
10231;DHT22;5159;49.432;8.680;2022-07-22T05:12:11;18.20;99.90
10231;DHT22;5159;49.432;8.680;2022-07-22T05:14:38;18.30;99.90
10231;DHT22;5159;49.432;8.680;2022-07-22T05:17:09;18.40;99.90
10231;DHT22;5159;49.432;8.680;2022-07-22T05:19:39;18.50;99.90
10231;DHT22;5159;49.432;8.680;2022-07-22T05:22:06;18.60;99.90
10231;DHT22;5159;49.432;8.680;2022-07-22T05:24:33;18.60;99.90
10231;DHT22;5159;49.432;8.680;2022-07-22T05:27:00;18.70;99.90
10231;DHT22;5159;49.432;8.680;2022-07-22T05:29:27;18.70;99.90
10231;DHT22;5159;49.432;8.680;2022-07-22T05:31:54;18.80;99.90
10231;DHT22;5159;49.432;8.680;2022-07-22T05:34:21;18.90;99.90
10231;DHT22;5159;49.432;8.680;2022-07-22T05:36:50;18.90;99.90
10231;DHT22;5159;49.432;8.680;2022-07-22T05:39:17;19.00;99.90
10231;DHT22;5159;49.432;8.680;2022-07-22T05:41:44;19.10;99.90
10231;DHT22;5159;49.432;8.680;2022-07-22T05:44:11;19.20;99.90
10231;DHT22;5159;49.432;8.680;2022-07-22T05:46:38;19.30;99.90
10231;DHT22;5159;49.432;8.680;2022-07-22T05:49:05;19.40;99.90
10231;DHT22;5159;49.432;8.680;2022-07-22T05:51:32;19.50;99.90
10231;DHT22;5159;49.432;8.680;2022-07-22T05:54:01;19.50;99.90
10231;DHT22;5159;49.432;8.680;2022-07-22T05:56:29;19.30;99.90
10231;DHT22;5159;49.432;8.680;2022-07-22T05:58:56;19.10;99.90
10231;DHT22;5159;49.432;8.680;2022-07-22T06:01:23;19.20;99.90
10231;DHT22;5159;49.432;8.680;2022-07-22T06:03:50;19.30;99.90
10231;DHT22;5159;49.432;8.680;2022-07-22T06:06:17;19.50;99.90
10231;DHT22;5159;49.432;8.680;2022-07-22T06:08:45;19.50;99.90
10231;DHT22;5159;49.432;8.680;2022-07-22T06:11:13;19.40;99.90
10231;DHT22;5159;49.432;8.680;2022-07-22T06:13:40;19.50;99.70
10231;DHT22;5159;49.432;8.680;2022-07-22T06:16:08;19.70;99.60
10231;DHT22;5159;49.432;8.680;2022-07-22T06:18:35;19.90;99.40
10231;DHT22;5159;49.432;8.680;2022-07-22T06:21:03;20.20;98.60
10231;DHT22;5159;49.432;8.680;2022-07-22T06:23:30;20.40;97.80
10231;DHT22;5159;49.432;8.680;2022-07-22T06:25:57;20.60;96.70
10231;DHT22;5159;49.432;8.680;2022-07-22T06:28:26;20.70;96.10
10231;DHT22;5159;49.432;8.680;2022-07-22T06:30:53;20.90;95.50
10231;DHT22;5159;49.432;8.680;2022-07-22T06:33:20;21.00;95.30
10231;DHT22;5159;49.432;8.680;2022-07-22T06:35:48;21.00;94.30
10231;DHT22;5159;49.432;8.680;2022-07-22T06:38:14;21.20;94.90
10231;DHT22;5159;49.432;8.680;2022-07-22T06:40:41;21.30;94.70
10231;DHT22;5159;49.432;8.680;2022-07-22T06:43:08;21.50;94.50
10231;DHT22;5159;49.432;8.680;2022-07-22T06:45:37;21.80;93.80
10231;DHT22;5159;49.432;8.680;2022-07-22T06:48:04;22.00;92.90
10231;DHT22;5159;49.432;8.680;2022-07-22T06:50:31;22.00;92.10
10231;DHT22;5159;49.432;8.680;2022-07-22T06:52:58;21.80;92.20
10231;DHT22;5159;49.432;8.680;2022-07-22T06:55:25;22.10;93.50
10231;DHT22;5159;49.432;8.680;2022-07-22T06:57:52;22.30;92.10
10231;DHT22;5159;49.432;8.680;2022-07-22T07:00:19;22.40;90.50
10231;DHT22;5159;49.432;8.680;2022-07-22T07:02:48;22.10;91.20
10231;DHT22;5159;49.432;8.680;2022-07-22T07:05:15;22.20;91.50
10231;DHT22;5159;49.432;8.680;2022-07-22T07:07:42;22.70;90.70
10231;DHT22;5159;49.432;8.680;2022-07-22T07:10:09;23.10;89.40
10231;DHT22;5159;49.432;8.680;2022-07-22T07:12:38;23.60;87.70
10231;DHT22;5159;49.432;8.680;2022-07-22T07:15:06;24.00;86.30
10231;DHT22;5159;49.432;8.680;2022-07-22T07:17:33;24.30;83.70
10231;DHT22;5159;49.432;8.680;2022-07-22T07:20:02;24.50;82.50
10231;DHT22;5159;49.432;8.680;2022-07-22T07:22:29;24.80;80.90
10231;DHT22;5159;49.432;8.680;2022-07-22T07:24:56;25.10;79.10
10231;DHT22;5159;49.432;8.680;2022-07-22T07:27:23;25.30;77.10
10231;DHT22;5159;49.432;8.680;2022-07-22T07:29:50;25.50;75.30
10231;DHT22;5159;49.432;8.680;2022-07-22T07:32:17;25.70;74.40
10231;DHT22;5159;49.432;8.680;2022-07-22T07:34:44;25.60;73.80
10231;DHT22;5159;49.432;8.680;2022-07-22T07:37:12;25.50;77.20
10231;DHT22;5159;49.432;8.680;2022-07-22T07:39:39;25.90;73.40
10231;DHT22;5159;49.432;8.680;2022-07-22T07:42:07;26.00;73.20
10231;DHT22;5159;49.432;8.680;2022-07-22T07:44:34;26.30;70.60
10231;DHT22;5159;49.432;8.680;2022-07-22T07:47:01;26.30;72.20
10231;DHT22;5159;49.432;8.680;2022-07-22T07:49:28;26.40;70.60
10231;DHT22;5159;49.432;8.680;2022-07-22T07:51:55;26.50;68.10
10231;DHT22;5159;49.432;8.680;2022-07-22T07:54:23;26.10;72.00
10231;DHT22;5159;49.432;8.680;2022-07-22T07:56:50;26.60;70.70
10231;DHT22;5159;49.432;8.680;2022-07-22T07:59:18;27.00;68.30
10231;DHT22;5159;49.432;8.680;2022-07-22T08:01:45;26.70;66.40
10231;DHT22;5159;49.432;8.680;2022-07-22T08:04:12;26.20;69.10
10231;DHT22;5159;49.432;8.680;2022-07-22T08:06:39;26.10;69.20
10231;DHT22;5159;49.432;8.680;2022-07-22T08:09:06;26.50;70.10
10231;DHT22;5159;49.432;8.680;2022-07-22T08:11:34;26.60;69.60
10231;DHT22;5159;49.432;8.680;2022-07-22T08:14:01;27.10;68.40
10231;DHT22;5159;49.432;8.680;2022-07-22T08:16:28;27.30;65.70
10231;DHT22;5159;49.432;8.680;2022-07-22T08:18:55;27.50;66.00
10231;DHT22;5159;49.432;8.680;2022-07-22T08:21:22;27.80;63.10
10231;DHT22;5159;49.432;8.680;2022-07-22T08:23:51;27.80;64.00
10231;DHT22;5159;49.432;8.680;2022-07-22T08:26:18;28.00;63.40
10231;DHT22;5159;49.432;8.680;2022-07-22T08:28:46;28.40;62.10
10231;DHT22;5159;49.432;8.680;2022-07-22T08:31:13;29.00;60.50
10231;DHT22;5159;49.432;8.680;2022-07-22T08:33:40;29.00;58.90
10231;DHT22;5159;49.432;8.680;2022-07-22T08:36:08;29.30;57.80
10231;DHT22;5159;49.432;8.680;2022-07-22T08:38:35;29.60;56.20
10231;DHT22;5159;49.432;8.680;2022-07-22T08:41:05;29.70;55.50
10231;DHT22;5159;49.432;8.680;2022-07-22T08:43:36;29.80;55.10
10231;DHT22;5159;49.432;8.680;2022-07-22T08:46:06;30.10;52.60
10231;DHT22;5159;49.432;8.680;2022-07-22T08:48:36;30.00;50.90
10231;DHT22;5159;49.432;8.680;2022-07-22T08:51:03;30.10;52.50
10231;DHT22;5159;49.432;8.680;2022-07-22T08:53:30;30.20;50.60
10231;DHT22;5159;49.432;8.680;2022-07-22T08:55:58;30.20;51.10
10231;DHT22;5159;49.432;8.680;2022-07-22T08:58:25;30.50;51.00
10231;DHT22;5159;49.432;8.680;2022-07-22T09:01:05;30.90;50.00
10231;DHT22;5159;49.432;8.680;2022-07-22T09:03:32;31.20;48.30
10231;DHT22;5159;49.432;8.680;2022-07-22T09:05:59;30.30;49.50
10231;DHT22;5159;49.432;8.680;2022-07-22T09:08:27;30.80;50.00
10231;DHT22;5159;49.432;8.680;2022-07-22T09:10:54;31.40;47.80
10231;DHT22;5159;49.432;8.680;2022-07-22T09:13:23;30.90;46.00
10231;DHT22;5159;49.432;8.680;2022-07-22T09:15:53;31.40;46.20
10231;DHT22;5159;49.432;8.680;2022-07-22T09:18:22;32.00;44.20
10231;DHT22;5159;49.432;8.680;2022-07-22T09:20:49;32.30;42.70
10231;DHT22;5159;49.432;8.680;2022-07-22T09:23:24;32.40;41.70
10231;DHT22;5159;49.432;8.680;2022-07-22T09:25:51;31.90;40.50
10231;DHT22;5159;49.432;8.680;2022-07-22T09:28:21;32.10;42.40
10231;DHT22;5159;49.432;8.680;2022-07-22T09:30:51;31.60;44.10
10231;DHT22;5159;49.432;8.680;2022-07-22T09:33:18;32.20;41.90
10231;DHT22;5159;49.432;8.680;2022-07-22T09:35:47;32.30;40.30
10231;DHT22;5159;49.432;8.680;2022-07-22T09:38:16;32.70;40.70
10231;DHT22;5159;49.432;8.680;2022-07-22T09:40:45;32.10;40.30
10231;DHT22;5159;49.432;8.680;2022-07-22T09:43:14;32.60;39.90
10231;DHT22;5159;49.432;8.680;2022-07-22T09:45:45;32.10;39.50
10231;DHT22;5159;49.432;8.680;2022-07-22T09:48:15;31.90;40.40
10231;DHT22;5159;49.432;8.680;2022-07-22T09:50:43;32.40;39.80
10231;DHT22;5159;49.432;8.680;2022-07-22T09:53:11;32.80;39.20
10231;DHT22;5159;49.432;8.680;2022-07-22T09:55:39;33.20;38.00
10231;DHT22;5159;49.432;8.680;2022-07-22T09:58:06;33.80;37.00
10231;DHT22;5159;49.432;8.680;2022-07-22T10:00:35;34.30;35.30
10231;DHT22;5159;49.432;8.680;2022-07-22T10:03:04;34.50;34.10
10231;DHT22;5159;49.432;8.680;2022-07-22T10:05:34;34.70;33.70
10231;DHT22;5159;49.432;8.680;2022-07-22T10:08:03;34.90;32.10
10231;DHT22;5159;49.432;8.680;2022-07-22T10:10:33;34.20;31.70
10231;DHT22;5159;49.432;8.680;2022-07-22T10:13:02;33.90;34.40
10231;DHT22;5159;49.432;8.680;2022-07-22T10:15:30;34.20;33.20
10231;DHT22;5159;49.432;8.680;2022-07-22T10:17:59;34.30;33.00
10231;DHT22;5159;49.432;8.680;2022-07-22T10:20:28;34.60;31.80
10231;DHT22;5159;49.432;8.680;2022-07-22T10:22:58;34.70;31.50
10231;DHT22;5159;49.432;8.680;2022-07-22T10:25:26;34.90;29.90
10231;DHT22;5159;49.432;8.680;2022-07-22T10:27:57;35.00;30.30
10231;DHT22;5159;49.432;8.680;2022-07-22T10:30:26;35.20;29.70
10231;DHT22;5159;49.432;8.680;2022-07-22T10:33:10;35.40;29.20
10231;DHT22;5159;49.432;8.680;2022-07-22T10:35:53;35.10;28.90
10231;DHT22;5159;49.432;8.680;2022-07-22T10:38:21;35.20;29.00
10231;DHT22;5159;49.432;8.680;2022-07-22T10:40:53;35.40;29.30
10231;DHT22;5159;49.432;8.680;2022-07-22T10:43:23;35.30;28.80
10231;DHT22;5159;49.432;8.680;2022-07-22T10:45:52;35.50;29.30
10231;DHT22;5159;49.432;8.680;2022-07-22T10:48:21;35.60;27.70
10231;DHT22;5159;49.432;8.680;2022-07-22T10:51:08;35.60;27.60
10231;DHT22;5159;49.432;8.680;2022-07-22T10:53:44;36.00;28.10
10231;DHT22;5159;49.432;8.680;2022-07-22T10:56:21;35.10;27.50
10231;DHT22;5159;49.432;8.680;2022-07-22T10:58:58;34.90;28.80
10231;DHT22;5159;49.432;8.680;2022-07-22T11:01:30;35.30;28.60
10231;DHT22;5159;49.432;8.680;2022-07-22T11:04:08;34.90;28.90
10231;DHT22;5159;49.432;8.680;2022-07-22T11:06:35;35.30;28.40
10231;DHT22;5159;49.432;8.680;2022-07-22T11:09:05;35.50;28.00
10231;DHT22;5159;49.432;8.680;2022-07-22T11:11:39;35.20;27.70
10231;DHT22;5159;49.432;8.680;2022-07-22T11:14:15;34.90;28.10
10231;DHT22;5159;49.432;8.680;2022-07-22T11:16:44;34.90;27.40
10231;DHT22;5159;49.432;8.680;2022-07-22T11:19:12;35.00;28.20
10231;DHT22;5159;49.432;8.680;2022-07-22T11:21:39;35.40;27.40
10231;DHT22;5159;49.432;8.680;2022-07-22T11:24:07;35.60;26.60
10231;DHT22;5159;49.432;8.680;2022-07-22T11:26:41;35.40;27.00
10231;DHT22;5159;49.432;8.680;2022-07-22T11:29:09;35.70;26.70
10231;DHT22;5159;49.432;8.680;2022-07-22T11:31:38;36.20;26.10
10231;DHT22;5159;49.432;8.680;2022-07-22T11:34:07;36.30;25.70
10231;DHT22;5159;49.432;8.680;2022-07-22T11:36:36;36.50;25.00
10231;DHT22;5159;49.432;8.680;2022-07-22T11:39:04;36.60;24.60
10231;DHT22;5159;49.432;8.680;2022-07-22T11:41:31;36.60;25.00
10231;DHT22;5159;49.432;8.680;2022-07-22T11:44:00;35.60;25.70
10231;DHT22;5159;49.432;8.680;2022-07-22T11:46:28;35.80;26.00
10231;DHT22;5159;49.432;8.680;2022-07-22T11:48:56;35.80;25.60
10231;DHT22;5159;49.432;8.680;2022-07-22T11:51:28;36.00;25.30
10231;DHT22;5159;49.432;8.680;2022-07-22T11:53:56;36.20;25.60
10231;DHT22;5159;49.432;8.680;2022-07-22T11:56:23;36.20;25.00
10231;DHT22;5159;49.432;8.680;2022-07-22T11:58:51;36.30;23.80
10231;DHT22;5159;49.432;8.680;2022-07-22T12:01:22;36.30;24.70
10231;DHT22;5159;49.432;8.680;2022-07-22T12:03:51;36.30;24.70
10231;DHT22;5159;49.432;8.680;2022-07-22T12:06:21;35.80;23.80
10231;DHT22;5159;49.432;8.680;2022-07-22T12:08:51;35.70;25.00
10231;DHT22;5159;49.432;8.680;2022-07-22T12:11:19;35.50;25.60
10231;DHT22;5159;49.432;8.680;2022-07-22T12:13:49;35.60;25.00
10231;DHT22;5159;49.432;8.680;2022-07-22T12:16:18;35.20;24.60
10231;DHT22;5159;49.432;8.680;2022-07-22T12:18:54;35.00;25.50
10231;DHT22;5159;49.432;8.680;2022-07-22T12:21:24;33.90;25.90
10231;DHT22;5159;49.432;8.680;2022-07-22T12:23:53;33.30;27.10
10231;DHT22;5159;49.432;8.680;2022-07-22T12:26:36;32.20;28.60
10231;DHT22;5159;49.432;8.680;2022-07-22T12:29:18;33.00;29.40
10231;DHT22;5159;49.432;8.680;2022-07-22T12:31:48;33.40;27.70
10231;DHT22;5159;49.432;8.680;2022-07-22T12:34:15;33.90;27.30
10231;DHT22;5159;49.432;8.680;2022-07-22T12:36:45;34.40;26.80
10231;DHT22;5159;49.432;8.680;2022-07-22T12:39:17;34.80;27.00
10231;DHT22;5159;49.432;8.680;2022-07-22T12:41:49;35.10;25.70
10231;DHT22;5159;49.432;8.680;2022-07-22T12:44:18;35.30;25.20
10231;DHT22;5159;49.432;8.680;2022-07-22T12:46:46;34.20;24.60
10231;DHT22;5159;49.432;8.680;2022-07-22T12:49:16;33.60;25.70
10231;DHT22;5159;49.432;8.680;2022-07-22T12:52:05;33.50;27.60
10231;DHT22;5159;49.432;8.680;2022-07-22T12:54:33;34.00;26.90
10231;DHT22;5159;49.432;8.680;2022-07-22T12:57:00;34.40;26.40
10231;DHT22;5159;49.432;8.680;2022-07-22T12:59:27;34.70;25.70
10231;DHT22;5159;49.432;8.680;2022-07-22T13:01:54;34.90;25.60
10231;DHT22;5159;49.432;8.680;2022-07-22T13:04:21;35.20;25.40
10231;DHT22;5159;49.432;8.680;2022-07-22T13:06:48;35.20;24.80
10231;DHT22;5159;49.432;8.680;2022-07-22T13:09:17;35.20;24.20
10231;DHT22;5159;49.432;8.680;2022-07-22T13:11:44;35.10;24.30
10231;DHT22;5159;49.432;8.680;2022-07-22T13:14:12;35.10;24.00
10231;DHT22;5159;49.432;8.680;2022-07-22T13:16:39;35.00;23.70
10231;DHT22;5159;49.432;8.680;2022-07-22T13:19:07;34.80;23.80
10231;DHT22;5159;49.432;8.680;2022-07-22T13:21:34;34.30;24.60
10231;DHT22;5159;49.432;8.680;2022-07-22T13:24:01;34.40;25.90
10231;DHT22;5159;49.432;8.680;2022-07-22T13:26:29;34.40;25.50
10231;DHT22;5159;49.432;8.680;2022-07-22T13:28:56;34.30;24.80
10231;DHT22;5159;49.432;8.680;2022-07-22T13:31:23;34.00;24.80
10231;DHT22;5159;49.432;8.680;2022-07-22T13:33:52;33.50;25.20
10231;DHT22;5159;49.432;8.680;2022-07-22T13:36:19;33.30;25.60
10231;DHT22;5159;49.432;8.680;2022-07-22T13:38:49;32.90;26.10
10231;DHT22;5159;49.432;8.680;2022-07-22T13:41:17;32.50;26.30
10231;DHT22;5159;49.432;8.680;2022-07-22T13:43:45;32.50;26.90
10231;DHT22;5159;49.432;8.680;2022-07-22T13:46:14;32.50;25.70
10231;DHT22;5159;49.432;8.680;2022-07-22T13:48:42;32.40;26.60
10231;DHT22;5159;49.432;8.680;2022-07-22T13:51:10;32.40;26.00
10231;DHT22;5159;49.432;8.680;2022-07-22T13:53:37;32.30;25.80
10231;DHT22;5159;49.432;8.680;2022-07-22T13:56:05;32.50;26.10
10231;DHT22;5159;49.432;8.680;2022-07-22T13:58:32;32.50;26.40
10231;DHT22;5159;49.432;8.680;2022-07-22T14:01:01;32.60;26.40
10231;DHT22;5159;49.432;8.680;2022-07-22T14:03:28;32.30;26.40
10231;DHT22;5159;49.432;8.680;2022-07-22T14:05:55;32.00;26.80
10231;DHT22;5159;49.432;8.680;2022-07-22T14:08:22;31.70;27.00
10231;DHT22;5159;49.432;8.680;2022-07-22T14:10:49;31.70;27.10
10231;DHT22;5159;49.432;8.680;2022-07-22T14:13:16;31.70;28.30
10231;DHT22;5159;49.432;8.680;2022-07-22T14:15:43;32.00;27.50
10231;DHT22;5159;49.432;8.680;2022-07-22T14:18:12;31.80;27.10
10231;DHT22;5159;49.432;8.680;2022-07-22T14:20:39;31.70;27.40
10231;DHT22;5159;49.432;8.680;2022-07-22T14:23:07;31.80;27.80
10231;DHT22;5159;49.432;8.680;2022-07-22T14:25:35;31.80;27.30
10231;DHT22;5159;49.432;8.680;2022-07-22T14:28:03;31.70;27.40
10231;DHT22;5159;49.432;8.680;2022-07-22T14:30:30;31.70;27.30
10231;DHT22;5159;49.432;8.680;2022-07-22T14:32:57;31.70;27.50
10231;DHT22;5159;49.432;8.680;2022-07-22T14:35:25;31.40;27.50
10231;DHT22;5159;49.432;8.680;2022-07-22T14:37:52;31.30;27.70
10231;DHT22;5159;49.432;8.680;2022-07-22T14:40:19;31.50;27.70
10231;DHT22;5159;49.432;8.680;2022-07-22T14:42:46;31.60;27.80
10231;DHT22;5159;49.432;8.680;2022-07-22T14:45:14;31.70;27.60
10231;DHT22;5159;49.432;8.680;2022-07-22T14:47:41;31.50;28.10
10231;DHT22;5159;49.432;8.680;2022-07-22T14:50:08;31.20;28.50
10231;DHT22;5159;49.432;8.680;2022-07-22T14:52:36;31.30;28.30
10231;DHT22;5159;49.432;8.680;2022-07-22T14:55:04;31.10;28.70
10231;DHT22;5159;49.432;8.680;2022-07-22T14:57:31;30.90;28.90
10231;DHT22;5159;49.432;8.680;2022-07-22T14:59:58;31.00;28.50
10231;DHT22;5159;49.432;8.680;2022-07-22T15:02:25;31.20;28.20
10231;DHT22;5159;49.432;8.680;2022-07-22T15:04:52;31.20;28.30
10231;DHT22;5159;49.432;8.680;2022-07-22T15:07:19;31.30;28.10
10231;DHT22;5159;49.432;8.680;2022-07-22T15:09:48;31.20;28.10
10231;DHT22;5159;49.432;8.680;2022-07-22T15:12:15;31.10;28.40
10231;DHT22;5159;49.432;8.680;2022-07-22T15:14:42;31.10;28.30
10231;DHT22;5159;49.432;8.680;2022-07-22T15:17:09;31.10;28.10
10231;DHT22;5159;49.432;8.680;2022-07-22T15:19:36;31.00;28.50
10231;DHT22;5159;49.432;8.680;2022-07-22T15:22:03;31.10;28.50
10231;DHT22;5159;49.432;8.680;2022-07-22T15:24:30;31.20;28.40
10231;DHT22;5159;49.432;8.680;2022-07-22T15:26:58;31.20;28.50
10231;DHT22;5159;49.432;8.680;2022-07-22T15:29:25;31.20;28.40
10231;DHT22;5159;49.432;8.680;2022-07-22T15:31:52;31.00;28.60
10231;DHT22;5159;49.432;8.680;2022-07-22T15:34:19;30.90;28.60
10231;DHT22;5159;49.432;8.680;2022-07-22T15:36:46;31.00;28.40
10231;DHT22;5159;49.432;8.680;2022-07-22T15:39:13;31.00;28.60
10231;DHT22;5159;49.432;8.680;2022-07-22T15:41:40;31.00;28.60
10231;DHT22;5159;49.432;8.680;2022-07-22T15:44:09;30.70;28.60
10231;DHT22;5159;49.432;8.680;2022-07-22T15:46:36;30.50;29.10
10231;DHT22;5159;49.432;8.680;2022-07-22T15:49:03;30.60;28.80
10231;DHT22;5159;49.432;8.680;2022-07-22T15:51:30;30.70;29.00